sensor_id;sensor_type;location;lat;lon;timestamp;pressure;altitude;pressure_sealevel;temperature;humidity
34177;BME280;20450;49.074;9.158;2023-03-23T00:00:08;99121.97;;;15.09;51.42
34177;BME280;20450;49.074;9.158;2023-03-23T00:02:38;99129.84;;;15.05;51.16
34177;BME280;20450;49.074;9.158;2023-03-23T00:05:04;99112.44;;;15.06;51.15
34177;BME280;20450;49.074;9.158;2023-03-23T00:07:31;99120.00;;;15.04;51.13
34177;BME280;20450;49.074;9.158;2023-03-23T00:09:59;99123.81;;;15.03;51.21
34177;BME280;20450;49.074;9.158;2023-03-23T00:12:27;99119.91;;;14.94;51.94
34177;BME280;20450;49.074;9.158;2023-03-23T00:14:54;99116.31;;;14.89;51.96
34177;BME280;20450;49.074;9.158;2023-03-23T00:17:20;99123.53;;;14.78;52.76
34177;BME280;20450;49.074;9.158;2023-03-23T00:19:46;99123.28;;;14.80;52.31
34177;BME280;20450;49.074;9.158;2023-03-23T00:22:14;99123.28;;;14.80;52.77
34177;BME280;20450;49.074;9.158;2023-03-23T00:24:41;99122.78;;;14.83;51.99
34177;BME280;20450;49.074;9.158;2023-03-23T00:27:09;99113.53;;;14.84;52.38
34177;BME280;20450;49.074;9.158;2023-03-23T00:29:35;99109.19;;;14.83;52.04
34177;BME280;20450;49.074;9.158;2023-03-23T00:32:01;99102.38;;;14.80;53.10
34177;BME280;20450;49.074;9.158;2023-03-23T00:34:30;99095.25;;;14.79;52.61
34177;BME280;20450;49.074;9.158;2023-03-23T00:36:58;99094.50;;;14.84;52.43
34177;BME280;20450;49.074;9.158;2023-03-23T00:39:25;99100.59;;;14.91;51.98
34177;BME280;20450;49.074;9.158;2023-03-23T00:41:53;99093.22;;;14.91;52.04
34177;BME280;20450;49.074;9.158;2023-03-23T00:44:21;99083.44;;;14.90;52.14
34177;BME280;20450;49.074;9.158;2023-03-23T00:46:47;99071.47;;;14.91;52.19
34177;BME280;20450;49.074;9.158;2023-03-23T00:49:14;99078.81;;;14.91;52.28
34177;BME280;20450;49.074;9.158;2023-03-23T00:51:43;99074.19;;;14.91;51.99
34177;BME280;20450;49.074;9.158;2023-03-23T00:54:10;99074.44;;;14.90;52.55
34177;BME280;20450;49.074;9.158;2023-03-23T00:56:37;99065.47;;;14.89;52.53
34177;BME280;20450;49.074;9.158;2023-03-23T00:59:03;99064.97;;;14.92;52.66
34177;BME280;20450;49.074;9.158;2023-03-23T01:01:30;99057.31;;;14.89;52.82
34177;BME280;20450;49.074;9.158;2023-03-23T01:03:57;99060.56;;;14.86;53.10
34177;BME280;20450;49.074;9.158;2023-03-23T01:06:24;99056.50;;;14.89;52.90
34177;BME280;20450;49.074;9.158;2023-03-23T01:08:50;99052.25;;;14.98;52.06
34177;BME280;20450;49.074;9.158;2023-03-23T01:11:16;99053.34;;;15.02;51.88
34177;BME280;20450;49.074;9.158;2023-03-23T01:13:42;99057.72;;;15.03;52.43
34177;BME280;20450;49.074;9.158;2023-03-23T01:16:10;99059.13;;;15.10;52.12
34177;BME280;20450;49.074;9.158;2023-03-23T01:18:39;99057.75;;;15.08;52.28
34177;BME280;20450;49.074;9.158;2023-03-23T01:21:06;99060.75;;;15.06;52.37
34177;BME280;20450;49.074;9.158;2023-03-23T01:23:34;99059.13;;;15.10;51.99
34177;BME280;20450;49.074;9.158;2023-03-23T01:26:03;99053.69;;;15.10;52.02
34177;BME280;20450;49.074;9.158;2023-03-23T01:28:29;99056.94;;;15.07;52.72
34177;BME280;20450;49.074;9.158;2023-03-23T01:30:59;99044.75;;;15.10;52.44
34177;BME280;20450;49.074;9.158;2023-03-23T01:33:26;99046.81;;;15.03;52.75
34177;BME280;20450;49.074;9.158;2023-03-23T01:35:53;99044.06;;;14.98;52.63
34177;BME280;20450;49.074;9.158;2023-03-23T01:38:19;99038.03;;;14.91;52.99
34177;BME280;20450;49.074;9.158;2023-03-23T01:40:45;99039.06;;;14.85;53.12
34177;BME280;20450;49.074;9.158;2023-03-23T01:43:14;99031.16;;;14.83;53.65
34177;BME280;20450;49.074;9.158;2023-03-23T01:45:43;99034.94;;;14.82;53.76
34177;BME280;20450;49.074;9.158;2023-03-23T01:48:14;99033.31;;;14.81;53.58
34177;BME280;20450;49.074;9.158;2023-03-23T01:50:57;99030.53;;;14.76;53.48
34177;BME280;20450;49.074;9.158;2023-03-23T01:53:32;99029.22;;;14.79;53.81
34177;BME280;20450;49.074;9.158;2023-03-23T01:56:02;99036.47;;;14.73;54.11
34177;BME280;20450;49.074;9.158;2023-03-23T01:58:32;99028.31;;;14.73;54.32
34177;BME280;20450;49.074;9.158;2023-03-23T02:01:04;99023.38;;;14.70;54.33
34177;BME280;20450;49.074;9.158;2023-03-23T02:03:35;99031.03;;;14.73;54.19
34177;BME280;20450;49.074;9.158;2023-03-23T02:06:05;99025.91;;;14.77;53.73
34177;BME280;20450;49.074;9.158;2023-03-23T02:08:41;99028.38;;;14.78;53.97
34177;BME280;20450;49.074;9.158;2023-03-23T02:11:12;99022.88;;;14.73;54.14
34177;BME280;20450;49.074;9.158;2023-03-23T02:13:39;99022.34;;;14.71;54.04
34177;BME280;20450;49.074;9.158;2023-03-23T02:16:11;99021.81;;;14.74;53.58
34177;BME280;20450;49.074;9.158;2023-03-23T02:18:53;99020.16;;;14.73;54.02
34177;BME280;20450;49.074;9.158;2023-03-23T02:21:46;99005.19;;;14.71;54.30
34177;BME280;20450;49.074;9.158;2023-03-23T02:24:41;99005.50;;;14.74;53.92
34177;BME280;20450;49.074;9.158;2023-03-23T02:27:28;98994.47;;;14.86;53.18
34177;BME280;20450;49.074;9.158;2023-03-23T02:30:39;99003.72;;;14.85;53.28
34177;BME280;20450;49.074;9.158;2023-03-23T02:33:31;98987.41;;;14.85;53.36
34177;BME280;20450;49.074;9.158;2023-03-23T02:36:10;98982.50;;;14.87;53.45
34177;BME280;20450;49.074;9.158;2023-03-23T02:38:51;98981.66;;;14.81;53.74
34177;BME280;20450;49.074;9.158;2023-03-23T02:41:27;98972.13;;;14.84;53.68
34177;BME280;20450;49.074;9.158;2023-03-23T02:43:57;98970.50;;;14.83;53.59
34177;BME280;20450;49.074;9.158;2023-03-23T02:46:29;98969.69;;;14.82;53.72
34177;BME280;20450;49.074;9.158;2023-03-23T02:48:59;98967.00;;;14.87;53.13
34177;BME280;20450;49.074;9.158;2023-03-23T02:51:28;98957.25;;;14.91;52.57
34177;BME280;20450;49.074;9.158;2023-03-23T02:53:56;98948.88;;;14.98;52.88
34177;BME280;20450;49.074;9.158;2023-03-23T02:56:26;98952.66;;;14.97;52.52
34177;BME280;20450;49.074;9.158;2023-03-23T02:58:55;98955.97;;;14.99;52.38
34177;BME280;20450;49.074;9.158;2023-03-23T03:01:55;98954.00;;;14.94;52.29
34177;BME280;20450;49.074;9.158;2023-03-23T03:04:29;98947.47;;;14.95;52.19
34177;BME280;20450;49.074;9.158;2023-03-23T03:07:10;98945.06;;;14.99;52.26
34177;BME280;20450;49.074;9.158;2023-03-23T03:09:52;98938.47;;;14.90;52.24
34177;BME280;20450;49.074;9.158;2023-03-23T03:12:32;98941.44;;;14.88;52.54
34177;BME280;20450;49.074;9.158;2023-03-23T03:15:17;98948.28;;;14.91;52.75
34177;BME280;20450;49.074;9.158;2023-03-23T03:18:00;98953.16;;;14.89;52.58
34177;BME280;20450;49.074;9.158;2023-03-23T03:20:38;98949.94;;;14.92;51.96
34177;BME280;20450;49.074;9.158;2023-03-23T03:23:10;98944.22;;;14.93;52.27
34177;BME280;20450;49.074;9.158;2023-03-23T03:25:43;98936.28;;;14.87;52.81
34177;BME280;20450;49.074;9.158;2023-03-23T03:28:12;98950.38;;;14.84;52.62
34177;BME280;20450;49.074;9.158;2023-03-23T03:30:45;98946.34;;;14.86;52.64
34177;BME280;20450;49.074;9.158;2023-03-23T03:33:15;98944.69;;;14.85;52.89
34177;BME280;20450;49.074;9.158;2023-03-23T03:35:43;98951.78;;;14.86;52.62
34177;BME280;20450;49.074;9.158;2023-03-23T03:38:11;98957.75;;;14.83;53.07
34177;BME280;20450;49.074;9.158;2023-03-23T03:40:38;98946.88;;;14.83;52.54
34177;BME280;20450;49.074;9.158;2023-03-23T03:43:05;98944.66;;;14.80;53.13
34177;BME280;20450;49.074;9.158;2023-03-23T03:45:32;98946.28;;;14.81;53.01
34177;BME280;20450;49.074;9.158;2023-03-23T03:47:58;98947.66;;;14.79;53.33
34177;BME280;20450;49.074;9.158;2023-03-23T03:50:24;98945.69;;;14.74;53.10
34177;BME280;20450;49.074;9.158;2023-03-23T03:52:51;98942.97;;;14.74;53.49
34177;BME280;20450;49.074;9.158;2023-03-23T03:55:17;98937.22;;;14.71;53.50
34177;BME280;20450;49.074;9.158;2023-03-23T03:57:46;98945.44;;;14.76;53.09
34177;BME280;20450;49.074;9.158;2023-03-23T04:00:31;98944.03;;;14.73;53.64
34177;BME280;20450;49.074;9.158;2023-03-23T04:02:57;98951.41;;;14.73;53.39
34177;BME280;20450;49.074;9.158;2023-03-23T04:05:46;98944.59;;;14.75;53.40
34177;BME280;20450;49.074;9.158;2023-03-23T04:08:13;98950.06;;;14.75;53.24
34177;BME280;20450;49.074;9.158;2023-03-23T04:10:39;98956.00;;;14.72;54.03
34177;BME280;20450;49.074;9.158;2023-03-23T04:13:07;98965.53;;;14.75;53.49
34177;BME280;20450;49.074;9.158;2023-03-23T04:15:59;98960.16;;;14.80;53.44
34177;BME280;20450;49.074;9.158;2023-03-23T04:18:25;98948.50;;;14.84;53.09
34177;BME280;20450;49.074;9.158;2023-03-23T04:20:53;98940.84;;;14.81;53.30
34177;BME280;20450;49.074;9.158;2023-03-23T04:23:21;98949.28;;;14.80;53.85
34177;BME280;20450;49.074;9.158;2023-03-23T04:25:50;98946.28;;;14.81;53.47
34177;BME280;20450;49.074;9.158;2023-03-23T04:28:16;98947.38;;;14.80;53.79
34177;BME280;20450;49.074;9.158;2023-03-23T04:30:55;98944.28;;;14.72;54.13
34177;BME280;20450;49.074;9.158;2023-03-23T04:33:23;98945.59;;;14.64;54.68
34177;BME280;20450;49.074;9.158;2023-03-23T04:35:54;98949.44;;;14.68;54.12
34177;BME280;20450;49.074;9.158;2023-03-23T04:38:32;98943.50;;;14.71;54.06
34177;BME280;20450;49.074;9.158;2023-03-23T04:41:03;98953.09;;;14.79;54.04
34177;BME280;20450;49.074;9.158;2023-03-23T04:43:42;98947.66;;;14.79;53.81
34177;BME280;20450;49.074;9.158;2023-03-23T04:46:29;98950.09;;;14.80;53.60
34177;BME280;20450;49.074;9.158;2023-03-23T04:48:58;98959.38;;;14.84;53.71
34177;BME280;20450;49.074;9.158;2023-03-23T04:51:29;98965.06;;;14.83;53.68
34177;BME280;20450;49.074;9.158;2023-03-23T04:54:00;98962.41;;;14.88;53.90
34177;BME280;20450;49.074;9.158;2023-03-23T04:56:28;98957.16;;;14.81;53.85
34177;BME280;20450;49.074;9.158;2023-03-23T04:58:56;98960.47;;;14.83;53.93
34177;BME280;20450;49.074;9.158;2023-03-23T05:01:22;98964.56;;;14.86;54.00
34177;BME280;20450;49.074;9.158;2023-03-23T05:04:06;98956.84;;;14.78;54.59
34177;BME280;20450;49.074;9.158;2023-03-23T05:06:33;98958.41;;;14.69;54.86
34177;BME280;20450;49.074;9.158;2023-03-23T05:09:06;98963.25;;;14.62;55.24
34177;BME280;20450;49.074;9.158;2023-03-23T05:11:32;98951.00;;;14.59;56.20
34177;BME280;20450;49.074;9.158;2023-03-23T05:13:58;98944.97;;;14.57;55.76
34177;BME280;20450;49.074;9.158;2023-03-23T05:16:24;98947.69;;;14.57;55.96
34177;BME280;20450;49.074;9.158;2023-03-23T05:18:51;98955.41;;;14.65;55.49
34177;BME280;20450;49.074;9.158;2023-03-23T05:21:17;98956.84;;;14.73;55.40
34177;BME280;20450;49.074;9.158;2023-03-23T05:23:48;98956.06;;;14.77;54.69
34177;BME280;20450;49.074;9.158;2023-03-23T05:26:19;98967.00;;;14.87;54.41
34177;BME280;20450;49.074;9.158;2023-03-23T05:28:45;98961.88;;;14.91;54.32
34177;BME280;20450;49.074;9.158;2023-03-23T05:31:22;98956.81;;;15.04;53.37
34177;BME280;20450;49.074;9.158;2023-03-23T05:33:48;98954.72;;;15.16;53.02
34177;BME280;20450;49.074;9.158;2023-03-23T05:36:27;98951.47;;;15.14;53.11
34177;BME280;20450;49.074;9.158;2023-03-23T05:39:12;98957.19;;;15.18;52.66
34177;BME280;20450;49.074;9.158;2023-03-23T05:42:07;98955.81;;;15.15;53.35
34177;BME280;20450;49.074;9.158;2023-03-23T05:44:47;98956.66;;;15.16;53.43
34177;BME280;20450;49.074;9.158;2023-03-23T05:47:13;98962.03;;;15.11;53.84
34177;BME280;20450;49.074;9.158;2023-03-23T05:49:45;98971.03;;;15.11;54.01
34177;BME280;20450;49.074;9.158;2023-03-23T05:52:15;98975.59;;;15.06;54.25
34177;BME280;20450;49.074;9.158;2023-03-23T05:54:41;98983.47;;;15.02;55.58
34177;BME280;20450;49.074;9.158;2023-03-23T05:57:09;98974.28;;;15.08;54.84
34177;BME280;20450;49.074;9.158;2023-03-23T05:59:58;98990.59;;;15.08;54.50
34177;BME280;20450;49.074;9.158;2023-03-23T06:02:24;99006.13;;;15.13;56.16
34177;BME280;20450;49.074;9.158;2023-03-23T06:04:52;99002.66;;;15.22;54.46
34177;BME280;20450;49.074;9.158;2023-03-23T06:07:24;99017.41;;;15.26;54.22
34177;BME280;20450;49.074;9.158;2023-03-23T06:10:04;99009.78;;;15.28;54.36
34177;BME280;20450;49.074;9.158;2023-03-23T06:12:38;99021.50;;;15.29;54.87
34177;BME280;20450;49.074;9.158;2023-03-23T06:15:12;99024.47;;;15.27;55.27
34177;BME280;20450;49.074;9.158;2023-03-23T06:18:02;99029.34;;;15.25;54.96
34177;BME280;20450;49.074;9.158;2023-03-23T06:20:37;99034.00;;;15.25;55.25
34177;BME280;20450;49.074;9.158;2023-03-23T06:23:16;99034.78;;;15.25;54.83
34177;BME280;20450;49.074;9.158;2023-03-23T06:25:42;99041.06;;;15.26;55.12
34177;BME280;20450;49.074;9.158;2023-03-23T06:28:11;99045.69;;;15.25;55.21
34177;BME280;20450;49.074;9.158;2023-03-23T06:30:40;99054.97;;;15.29;55.41
34177;BME280;20450;49.074;9.158;2023-03-23T06:33:07;99058.25;;;15.31;55.04
34177;BME280;20450;49.074;9.158;2023-03-23T06:35:53;99052.53;;;15.33;54.88
34177;BME280;20450;49.074;9.158;2023-03-23T06:38:29;99055.56;;;15.36;54.63
34177;BME280;20450;49.074;9.158;2023-03-23T06:40:55;99049.31;;;15.36;55.02
34177;BME280;20450;49.074;9.158;2023-03-23T06:43:25;99058.91;;;15.38;55.56
34177;BME280;20450;49.074;9.158;2023-03-23T06:45:58;99059.50;;;15.50;55.70
34177;BME280;20450;49.074;9.158;2023-03-23T06:48:44;99062.28;;;15.55;55.16
34177;BME280;20450;49.074;9.158;2023-03-23T06:51:15;99053.06;;;15.61;55.14
34177;BME280;20450;49.074;9.158;2023-03-23T06:53:46;99056.38;;;15.68;55.42
34177;BME280;20450;49.074;9.158;2023-03-23T06:56:13;99041.97;;;15.68;55.10
34177;BME280;20450;49.074;9.158;2023-03-23T06:58:42;99045.53;;;15.73;55.56
34177;BME280;20450;49.074;9.158;2023-03-23T07:01:08;99048.25;;;15.73;55.47
34177;BME280;20450;49.074;9.158;2023-03-23T07:03:39;99049.34;;;15.73;55.48
34177;BME280;20450;49.074;9.158;2023-03-23T07:06:06;99051.50;;;15.70;56.31
34177;BME280;20450;49.074;9.158;2023-03-23T07:08:36;99051.19;;;15.67;56.48
34177;BME280;20450;49.074;9.158;2023-03-23T07:11:03;99059.69;;;15.70;56.16
34177;BME280;20450;49.074;9.158;2023-03-23T07:13:30;99074.66;;;15.73;55.97
34177;BME280;20450;49.074;9.158;2023-03-23T07:16:00;99072.19;;;15.71;56.37
34177;BME280;20450;49.074;9.158;2023-03-23T07:18:28;99079.84;;;15.74;56.85
34177;BME280;20450;49.074;9.158;2023-03-23T07:20:56;99085.56;;;15.73;56.57
34177;BME280;20450;49.074;9.158;2023-03-23T07:23:28;99084.75;;;15.73;60.25
34177;BME280;20450;49.074;9.158;2023-03-23T07:26:02;99095.13;;;15.76;59.61
34177;BME280;20450;49.074;9.158;2023-03-23T07:28:35;99098.97;;;15.80;59.54
34177;BME280;20450;49.074;9.158;2023-03-23T07:31:09;99105.22;;;15.80;57.16
34177;BME280;20450;49.074;9.158;2023-03-23T07:33:36;99105.25;;;15.85;58.44
34177;BME280;20450;49.074;9.158;2023-03-23T07:36:02;99118.66;;;15.92;58.26
34177;BME280;20450;49.074;9.158;2023-03-23T07:38:29;99121.06;;;15.88;57.39
34177;BME280;20450;49.074;9.158;2023-03-23T07:40:56;99130.66;;;15.96;57.28
34177;BME280;20450;49.074;9.158;2023-03-23T07:43:22;99130.09;;;15.94;56.71
34177;BME280;20450;49.074;9.158;2023-03-23T07:46:21;99125.78;;;16.03;57.59
34177;BME280;20450;49.074;9.158;2023-03-23T07:48:57;99121.22;;;16.13;56.78
34177;BME280;20450;49.074;9.158;2023-03-23T07:51:30;99134.41;;;16.26;56.75
34177;BME280;20450;49.074;9.158;2023-03-23T07:53:56;99127.19;;;16.47;56.08
34177;BME280;20450;49.074;9.158;2023-03-23T07:56:41;99136.03;;;16.69;55.63
34177;BME280;20450;49.074;9.158;2023-03-23T07:59:13;99139.88;;;16.78;55.24
34177;BME280;20450;49.074;9.158;2023-03-23T08:01:42;99135.50;;;16.82;54.98
34177;BME280;20450;49.074;9.158;2023-03-23T08:04:44;99153.50;;;16.78;55.80
34177;BME280;20450;49.074;9.158;2023-03-23T08:07:20;99143.56;;;16.52;56.23
34177;BME280;20450;49.074;9.158;2023-03-23T08:10:03;99145.63;;;16.40;57.09
34177;BME280;20450;49.074;9.158;2023-03-23T08:12:34;99143.44;;;16.32;57.63
34177;BME280;20450;49.074;9.158;2023-03-23T08:15:04;99148.09;;;16.36;57.52
34177;BME280;20450;49.074;9.158;2023-03-23T08:18:12;99153.56;;;16.41;57.82
34177;BME280;20450;49.074;9.158;2023-03-23T08:20:57;99157.84;;;16.27;58.07
34177;BME280;20450;49.074;9.158;2023-03-23T08:23:48;99156.50;;;16.30;57.59
34177;BME280;20450;49.074;9.158;2023-03-23T08:26:25;99164.91;;;16.23;57.77
34177;BME280;20450;49.074;9.158;2023-03-23T08:29:10;99161.94;;;16.25;58.30
34177;BME280;20450;49.074;9.158;2023-03-23T08:31:57;99168.66;;;16.12;58.44
34177;BME280;20450;49.074;9.158;2023-03-23T08:34:36;99159.38;;;16.08;59.23
34177;BME280;20450;49.074;9.158;2023-03-23T08:37:20;99175.34;;;16.00;60.78
34177;BME280;20450;49.074;9.158;2023-03-23T08:39:46;99173.16;;;15.97;61.35
34177;BME280;20450;49.074;9.158;2023-03-23T08:42:47;99164.38;;;15.90;61.36
34177;BME280;20450;49.074;9.158;2023-03-23T08:45:32;99165.50;;;15.94;61.39
34177;BME280;20450;49.074;9.158;2023-03-23T08:48:05;99167.50;;;16.03;61.95
34177;BME280;20450;49.074;9.158;2023-03-23T08:51:06;99170.25;;;16.08;61.15
34177;BME280;20450;49.074;9.158;2023-03-23T08:53:51;99173.78;;;16.04;61.23
34177;BME280;20450;49.074;9.158;2023-03-23T08:56:35;99165.94;;;15.76;61.90
34177;BME280;20450;49.074;9.158;2023-03-23T08:59:21;99166.00;;;15.86;61.01
34177;BME280;20450;49.074;9.158;2023-03-23T09:02:16;99175.34;;;16.00;60.54
34177;BME280;20450;49.074;9.158;2023-03-23T09:04:49;99162.34;;;16.07;60.67
34177;BME280;20450;49.074;9.158;2023-03-23T09:07:35;99170.25;;;16.08;59.96
34177;BME280;20450;49.074;9.158;2023-03-23T09:10:01;99166.28;;;16.26;59.56
34177;BME280;20450;49.074;9.158;2023-03-23T09:12:28;99178.53;;;16.23;59.79
34177;BME280;20450;49.074;9.158;2023-03-23T09:14:54;99165.75;;;16.29;58.96
34177;BME280;20450;49.074;9.158;2023-03-23T09:17:20;99172.84;;;16.30;58.66
34177;BME280;20450;49.074;9.158;2023-03-23T09:19:46;99183.75;;;16.30;59.33
34177;BME280;20450;49.074;9.158;2023-03-23T09:22:13;99178.28;;;16.25;58.74
34177;BME280;20450;49.074;9.158;2023-03-23T09:24:40;99191.09;;;16.24;59.33
34177;BME280;20450;49.074;9.158;2023-03-23T09:27:09;99193.81;;;16.24;59.45
34177;BME280;20450;49.074;9.158;2023-03-23T09:29:34;99196.31;;;16.31;59.40
34177;BME280;20450;49.074;9.158;2023-03-23T09:32:01;99199.31;;;16.34;59.78
34177;BME280;20450;49.074;9.158;2023-03-23T09:34:28;99197.16;;;16.36;59.40
34177;BME280;20450;49.074;9.158;2023-03-23T09:36:54;99207.81;;;16.38;59.27
34177;BME280;20450;49.074;9.158;2023-03-23T09:39:20;99194.84;;;16.18;59.51
34177;BME280;20450;49.074;9.158;2023-03-23T09:42:02;99218.06;;;16.26;59.84
34177;BME280;20450;49.074;9.158;2023-03-23T09:44:47;99211.31;;;16.38;60.65
34177;BME280;20450;49.074;9.158;2023-03-23T09:47:28;99220.78;;;16.26;62.24
34177;BME280;20450;49.074;9.158;2023-03-23T09:50:09;99218.03;;;16.21;63.06
34177;BME280;20450;49.074;9.158;2023-03-23T09:52:41;99230.28;;;16.50;63.07
34177;BME280;20450;49.074;9.158;2023-03-23T09:55:13;99227.06;;;16.63;62.61
34177;BME280;20450;49.074;9.158;2023-03-23T09:57:51;99246.50;;;16.40;63.75
34177;BME280;20450;49.074;9.158;2023-03-23T10:00:24;99243.50;;;16.36;64.27
34177;BME280;20450;49.074;9.158;2023-03-23T10:03:00;99245.59;;;16.24;65.20
34177;BME280;20450;49.074;9.158;2023-03-23T10:05:33;99256.22;;;16.26;65.52
34177;BME280;20450;49.074;9.158;2023-03-23T10:08:02;99265.53;;;16.30;65.87
34177;BME280;20450;49.074;9.158;2023-03-23T10:10:43;99252.66;;;16.25;66.39
34177;BME280;20450;49.074;9.158;2023-03-23T10:13:23;99261.09;;;16.24;65.98
34177;BME280;20450;49.074;9.158;2023-03-23T10:16:01;99272.25;;;16.17;66.39
34177;BME280;20450;49.074;9.158;2023-03-23T10:18:33;99274.13;;;16.17;66.58
34177;BME280;20450;49.074;9.158;2023-03-23T10:21:03;99268.16;;;16.20;66.24
34177;BME280;20450;49.074;9.158;2023-03-23T10:23:55;99269.72;;;16.42;66.53
34177;BME280;20450;49.074;9.158;2023-03-23T10:26:36;99276.38;;;16.56;65.86
34177;BME280;20450;49.074;9.158;2023-03-23T10:29:18;99281.19;;;16.81;65.49
34177;BME280;20450;49.074;9.158;2023-03-23T10:31:50;99277.16;;;16.93;64.84
34177;BME280;20450;49.074;9.158;2023-03-23T10:34:23;99264.84;;;16.86;64.63
34177;BME280;20450;49.074;9.158;2023-03-23T10:36:59;99265.47;;;17.03;64.17
34177;BME280;20450;49.074;9.158;2023-03-23T10:39:31;99264.19;;;16.69;64.72
34177;BME280;20450;49.074;9.158;2023-03-23T10:42:03;99264.84;;;16.86;63.79
34177;BME280;20450;49.074;9.158;2023-03-23T10:44:31;99268.28;;;17.18;63.31
34177;BME280;20450;49.074;9.158;2023-03-23T10:46:59;99262.03;;;17.22;62.47
34177;BME280;20450;49.074;9.158;2023-03-23T10:49:29;99259.59;;;17.26;62.26
34177;BME280;20450;49.074;9.158;2023-03-23T10:52:05;99249.38;;;17.73;61.05
34177;BME280;20450;49.074;9.158;2023-03-23T10:54:46;99254.13;;;17.31;61.17
34177;BME280;20450;49.074;9.158;2023-03-23T10:57:24;99254.00;;;16.96;62.36
34177;BME280;20450;49.074;9.158;2023-03-23T10:59:58;99259.19;;;17.02;62.73
34177;BME280;20450;49.074;9.158;2023-03-23T11:02:27;99259.94;;;16.88;63.90
34177;BME280;20450;49.074;9.158;2023-03-23T11:04:59;99254.75;;;16.86;63.78
34177;BME280;20450;49.074;9.158;2023-03-23T11:07:31;99249.47;;;16.70;63.66
34177;BME280;20450;49.074;9.158;2023-03-23T11:10:07;99243.34;;;16.48;63.75
34177;BME280;20450;49.074;9.158;2023-03-23T11:12:43;99248.13;;;16.36;64.40
34177;BME280;20450;49.074;9.158;2023-03-23T11:15:23;99233.44;;;16.42;64.49
34177;BME280;20450;49.074;9.158;2023-03-23T11:18:02;99233.72;;;16.40;64.50
34177;BME280;20450;49.074;9.158;2023-03-23T11:20:35;99225.25;;;16.42;63.48
34177;BME280;20450;49.074;9.158;2023-03-23T11:23:09;99224.31;;;16.58;63.03
34177;BME280;20450;49.074;9.158;2023-03-23T11:25:56;99228.69;;;16.59;62.67
34177;BME280;20450;49.074;9.158;2023-03-23T11:28:31;99240.22;;;16.34;63.05
34177;BME280;20450;49.074;9.158;2023-03-23T11:31:03;99242.09;;;16.34;63.11
34177;BME280;20450;49.074;9.158;2023-03-23T11:33:37;99239.69;;;16.37;63.56
34177;BME280;20450;49.074;9.158;2023-03-23T11:36:15;99239.94;;;16.31;64.26
34177;BME280;20450;49.074;9.158;2023-03-23T11:38:42;99245.91;;;16.33;64.05
34177;BME280;20450;49.074;9.158;2023-03-23T11:41:11;99238.72;;;16.48;63.53
34177;BME280;20450;49.074;9.158;2023-03-23T11:43:39;99242.47;;;16.42;64.15
34177;BME280;20450;49.074;9.158;2023-03-23T11:46:15;99251.34;;;16.28;64.38
34177;BME280;20450;49.074;9.158;2023-03-23T11:48:53;99251.16;;;16.39;64.27
34177;BME280;20450;49.074;9.158;2023-03-23T11:51:29;99252.53;;;16.42;64.11
34177;BME280;20450;49.074;9.158;2023-03-23T11:54:04;99258.31;;;16.45;64.16
34177;BME280;20450;49.074;9.158;2023-03-23T11:56:41;99258.69;;;16.59;63.58
34177;BME280;20450;49.074;9.158;2023-03-23T11:59:11;99262.03;;;16.71;64.00
34177;BME280;20450;49.074;9.158;2023-03-23T12:01:47;99261.16;;;16.65;63.74
34177;BME280;20450;49.074;9.158;2023-03-23T12:04:45;99263.38;;;16.68;64.62
34177;BME280;20450;49.074;9.158;2023-03-23T12:07:39;99264.00;;;16.80;63.28
34177;BME280;20450;49.074;9.158;2023-03-23T12:10:25;99269.34;;;17.12;62.88
34177;BME280;20450;49.074;9.158;2023-03-23T12:13:05;99264.47;;;17.19;62.09
34177;BME280;20450;49.074;9.158;2023-03-23T12:15:48;99275.34;;;17.09;60.94
34177;BME280;20450;49.074;9.158;2023-03-23T12:18:27;99263.72;;;16.82;60.93
34177;BME280;20450;49.074;9.158;2023-03-23T12:21:06;99268.44;;;16.96;60.96
34177;BME280;20450;49.074;9.158;2023-03-23T12:23:49;99258.47;;;17.17;60.73
34177;BME280;20450;49.074;9.158;2023-03-23T12:26:25;99254.13;;;17.31;60.36
34177;BME280;20450;49.074;9.158;2023-03-23T12:29:25;99248.97;;;17.39;59.96
34177;BME280;20450;49.074;9.158;2023-03-23T12:32:25;99242.94;;;17.32;59.97
34177;BME280;20450;49.074;9.158;2023-03-23T12:35:48;99243.75;;;17.28;59.79
34177;BME280;20450;49.074;9.158;2023-03-23T12:38:33;99224.97;;;17.41;59.48
34177;BME280;20450;49.074;9.158;2023-03-23T12:41:15;99227.44;;;17.43;59.14
34177;BME280;20450;49.074;9.158;2023-03-23T12:43:51;99219.00;;;17.44;58.58
34177;BME280;20450;49.074;9.158;2023-03-23T12:46:31;99220.91;;;17.49;58.45
34177;BME280;20450;49.074;9.158;2023-03-23T12:49:17;99219.53;;;17.51;58.39
34177;BME280;20450;49.074;9.158;2023-03-23T12:51:54;99232.94;;;17.53;57.79
34177;BME280;20450;49.074;9.158;2023-03-23T12:54:29;99229.84;;;17.39;58.18
34177;BME280;20450;49.074;9.158;2023-03-23T12:57:02;99223.66;;;17.49;58.08
34177;BME280;20450;49.074;9.158;2023-03-23T12:59:40;99216.53;;;17.43;58.21
34177;BME280;20450;49.074;9.158;2023-03-23T13:02:18;99215.66;;;17.42;58.19
34177;BME280;20450;49.074;9.158;2023-03-23T13:04:54;99207.81;;;17.51;57.78
34177;BME280;20450;49.074;9.158;2023-03-23T13:07:32;99205.66;;;17.63;57.88
34177;BME280;20450;49.074;9.158;2023-03-23T13:10:07;99194.75;;;17.73;57.94
34177;BME280;20450;49.074;9.158;2023-03-23T13:12:41;99190.91;;;17.64;57.56
34177;BME280;20450;49.074;9.158;2023-03-23T13:15:20;99178.88;;;17.60;58.20
34177;BME280;20450;49.074;9.158;2023-03-23T13:18:00;99173.94;;;17.62;57.65
34177;BME280;20450;49.074;9.158;2023-03-23T13:20:51;99170.41;;;17.56;57.75
34177;BME280;20450;49.074;9.158;2023-03-23T13:23:26;99173.97;;;17.72;57.47
34177;BME280;20450;49.074;9.158;2023-03-23T13:25:59;99161.94;;;17.73;57.32
34177;BME280;20450;49.074;9.158;2023-03-23T13:28:29;99160.56;;;17.86;57.46
34177;BME280;20450;49.074;9.158;2023-03-23T13:31:00;99167.13;;;17.85;57.39
34177;BME280;20450;49.074;9.158;2023-03-23T13:33:46;99167.41;;;17.93;56.69
34177;BME280;20450;49.074;9.158;2023-03-23T13:36:19;99158.69;;;17.91;57.08